Terminal Aerodrome Forecast
Issued by NWS Raleigh/Durham, NC

Home | Current Version | Previous Version | Text Only | Print | Product List | Glossary On
Versions: 1 2 3 4 5 6 7 8 9 10 11 12 13 14 15 16 17 18
000
FTUS42 KRAH 261726
TAFRDU
TAF
KRDU 261726Z 2618/2718 18009G16KT P6SM SCT050 BKN250
     FM270100 16003KT P6SM BKN040
     FM271500 21007KT P6SM SCT025 BKN050=

USA.gov is the U.S. government's official web portal to all federal, state and local government web resources and services.